sensor_id;sensor_type;location;lat;lon;timestamp;temperature;humidity
10417;DHT22;62605;49.432;8.680;2022-10-15T00:01:04;15.10;99.90
10417;DHT22;62605;49.432;8.680;2022-10-15T00:03:31;15.10;99.90
10417;DHT22;62605;49.432;8.680;2022-10-15T00:06:05;15.10;99.90
10417;DHT22;62605;49.432;8.680;2022-10-15T00:08:33;15.10;99.90
10417;DHT22;62605;49.432;8.680;2022-10-15T00:11:04;15.10;99.90
10417;DHT22;62605;49.432;8.680;2022-10-15T00:13:31;15.10;99.90
10417;DHT22;62605;49.432;8.680;2022-10-15T00:15:59;15.00;99.90
10417;DHT22;62605;49.432;8.680;2022-10-15T00:18:27;15.10;99.90
10417;DHT22;62605;49.432;8.680;2022-10-15T00:20:54;15.20;99.90
10417;DHT22;62605;49.432;8.680;2022-10-15T00:23:23;15.10;99.90
10417;DHT22;62605;49.432;8.680;2022-10-15T00:26:04;15.10;99.90
10417;DHT22;62605;49.432;8.680;2022-10-15T00:28:31;15.10;99.90
10417;DHT22;62605;49.432;8.680;2022-10-15T00:31:00;15.10;99.90
10417;DHT22;62605;49.432;8.680;2022-10-15T00:33:27;15.10;99.90
10417;DHT22;62605;49.432;8.680;2022-10-15T00:36:00;15.10;99.90
10417;DHT22;62605;49.432;8.680;2022-10-15T00:38:30;15.10;99.90
10417;DHT22;62605;49.432;8.680;2022-10-15T00:40:59;15.10;99.90
10417;DHT22;62605;49.432;8.680;2022-10-15T00:43:39;15.10;99.90
10417;DHT22;62605;49.432;8.680;2022-10-15T00:46:16;15.10;99.90
10417;DHT22;62605;49.432;8.680;2022-10-15T00:48:47;15.10;99.90
10417;DHT22;62605;49.432;8.680;2022-10-15T00:51:18;15.20;99.90
10417;DHT22;62605;49.432;8.680;2022-10-15T00:53:49;15.10;99.90
10417;DHT22;62605;49.432;8.680;2022-10-15T00:56:19;15.10;99.90
10417;DHT22;62605;49.432;8.680;2022-10-15T00:58:49;15.10;99.90
10417;DHT22;62605;49.432;8.680;2022-10-15T01:01:17;15.10;99.90
10417;DHT22;62605;49.432;8.680;2022-10-15T01:03:44;15.10;99.90
10417;DHT22;62605;49.432;8.680;2022-10-15T01:06:11;15.10;99.90
10417;DHT22;62605;49.432;8.680;2022-10-15T01:08:38;15.10;99.90
10417;DHT22;62605;49.432;8.680;2022-10-15T01:11:25;15.10;99.90
10417;DHT22;62605;49.432;8.680;2022-10-15T01:14:01;15.10;99.90
10417;DHT22;62605;49.432;8.680;2022-10-15T01:16:40;15.10;99.90
10417;DHT22;62605;49.432;8.680;2022-10-15T01:19:43;15.20;99.90
10417;DHT22;62605;49.432;8.680;2022-10-15T01:22:18;15.20;99.90
10417;DHT22;62605;49.432;8.680;2022-10-15T01:25:01;15.20;99.90
10417;DHT22;62605;49.432;8.680;2022-10-15T01:27:41;15.10;99.90
10417;DHT22;62605;49.432;8.680;2022-10-15T01:30:21;15.10;99.90
10417;DHT22;62605;49.432;8.680;2022-10-15T01:33:02;15.10;99.90
10417;DHT22;62605;49.432;8.680;2022-10-15T01:35:36;15.10;99.90
10417;DHT22;62605;49.432;8.680;2022-10-15T01:38:17;15.10;99.90
10417;DHT22;62605;49.432;8.680;2022-10-15T01:40:49;15.10;99.90
10417;DHT22;62605;49.432;8.680;2022-10-15T01:43:23;15.10;99.90
10417;DHT22;62605;49.432;8.680;2022-10-15T01:45:57;15.10;99.90
10417;DHT22;62605;49.432;8.680;2022-10-15T01:48:28;15.10;99.90
10417;DHT22;62605;49.432;8.680;2022-10-15T01:50:59;15.10;99.90
10417;DHT22;62605;49.432;8.680;2022-10-15T01:53:27;15.10;99.90
10417;DHT22;62605;49.432;8.680;2022-10-15T01:55:57;15.10;99.90
10417;DHT22;62605;49.432;8.680;2022-10-15T01:58:27;15.10;99.90
10417;DHT22;62605;49.432;8.680;2022-10-15T02:00:57;15.10;99.90
10417;DHT22;62605;49.432;8.680;2022-10-15T02:03:25;15.20;99.90
10417;DHT22;62605;49.432;8.680;2022-10-15T02:05:55;15.20;99.90
10417;DHT22;62605;49.432;8.680;2022-10-15T02:08:32;15.10;99.90
10417;DHT22;62605;49.432;8.680;2022-10-15T02:11:04;15.10;99.90
10417;DHT22;62605;49.432;8.680;2022-10-15T02:13:42;15.10;99.90
10417;DHT22;62605;49.432;8.680;2022-10-15T02:16:20;15.20;99.90
10417;DHT22;62605;49.432;8.680;2022-10-15T02:18:52;15.20;99.90
10417;DHT22;62605;49.432;8.680;2022-10-15T02:21:27;15.20;99.90
10417;DHT22;62605;49.432;8.680;2022-10-15T02:23:57;15.20;99.90
10417;DHT22;62605;49.432;8.680;2022-10-15T02:26:29;15.20;99.90
10417;DHT22;62605;49.432;8.680;2022-10-15T02:28:58;15.20;99.90
10417;DHT22;62605;49.432;8.680;2022-10-15T02:31:30;15.20;99.90
10417;DHT22;62605;49.432;8.680;2022-10-15T02:34:03;15.20;99.90
10417;DHT22;62605;49.432;8.680;2022-10-15T02:36:32;15.20;99.90
10417;DHT22;62605;49.432;8.680;2022-10-15T02:39:01;15.30;99.90
10417;DHT22;62605;49.432;8.680;2022-10-15T02:41:29;15.20;99.90
10417;DHT22;62605;49.432;8.680;2022-10-15T02:43:56;15.30;99.90
10417;DHT22;62605;49.432;8.680;2022-10-15T02:46:24;15.30;99.90
10417;DHT22;62605;49.432;8.680;2022-10-15T02:48:53;15.30;99.90
10417;DHT22;62605;49.432;8.680;2022-10-15T02:51:20;15.30;99.90
10417;DHT22;62605;49.432;8.680;2022-10-15T02:53:48;15.30;99.90
10417;DHT22;62605;49.432;8.680;2022-10-15T02:56:15;15.30;99.90
10417;DHT22;62605;49.432;8.680;2022-10-15T02:58:43;15.30;99.90
10417;DHT22;62605;49.432;8.680;2022-10-15T03:01:10;15.30;99.90
10417;DHT22;62605;49.432;8.680;2022-10-15T03:03:38;15.30;99.90
10417;DHT22;62605;49.432;8.680;2022-10-15T03:06:08;15.40;99.90
10417;DHT22;62605;49.432;8.680;2022-10-15T03:08:35;15.40;99.90
10417;DHT22;62605;49.432;8.680;2022-10-15T03:11:02;15.30;99.90
10417;DHT22;62605;49.432;8.680;2022-10-15T03:13:30;15.40;99.90
10417;DHT22;62605;49.432;8.680;2022-10-15T03:15:57;15.40;99.90
10417;DHT22;62605;49.432;8.680;2022-10-15T03:18:24;15.40;99.90
10417;DHT22;62605;49.432;8.680;2022-10-15T03:20:55;15.40;99.90
10417;DHT22;62605;49.432;8.680;2022-10-15T03:23:24;15.40;99.90
10417;DHT22;62605;49.432;8.680;2022-10-15T03:25:51;15.40;99.90
10417;DHT22;62605;49.432;8.680;2022-10-15T03:28:18;15.40;99.90
10417;DHT22;62605;49.432;8.680;2022-10-15T03:30:46;15.40;99.90
10417;DHT22;62605;49.432;8.680;2022-10-15T03:33:13;15.40;99.90
10417;DHT22;62605;49.432;8.680;2022-10-15T03:35:40;15.40;99.90
10417;DHT22;62605;49.432;8.680;2022-10-15T03:38:08;15.40;99.90
10417;DHT22;62605;49.432;8.680;2022-10-15T03:40:37;15.40;99.90
10417;DHT22;62605;49.432;8.680;2022-10-15T03:43:04;15.40;99.90
10417;DHT22;62605;49.432;8.680;2022-10-15T03:45:31;15.40;99.90
10417;DHT22;62605;49.432;8.680;2022-10-15T03:47:58;15.40;99.90
10417;DHT22;62605;49.432;8.680;2022-10-15T03:50:25;15.40;99.90
10417;DHT22;62605;49.432;8.680;2022-10-15T03:52:53;15.40;99.90
10417;DHT22;62605;49.432;8.680;2022-10-15T03:55:20;15.50;99.90
10417;DHT22;62605;49.432;8.680;2022-10-15T03:57:49;15.40;99.90
10417;DHT22;62605;49.432;8.680;2022-10-15T04:00:16;15.50;99.90
10417;DHT22;62605;49.432;8.680;2022-10-15T04:02:43;15.50;99.90
10417;DHT22;62605;49.432;8.680;2022-10-15T04:05:11;15.50;99.90
10417;DHT22;62605;49.432;8.680;2022-10-15T04:07:38;15.50;99.90
10417;DHT22;62605;49.432;8.680;2022-10-15T04:10:06;15.50;99.90
10417;DHT22;62605;49.432;8.680;2022-10-15T04:12:36;15.60;99.90
10417;DHT22;62605;49.432;8.680;2022-10-15T04:15:07;15.50;99.90
10417;DHT22;62605;49.432;8.680;2022-10-15T04:17:35;15.50;99.90
10417;DHT22;62605;49.432;8.680;2022-10-15T04:20:03;15.60;99.90
10417;DHT22;62605;49.432;8.680;2022-10-15T04:22:30;15.60;99.90
10417;DHT22;62605;49.432;8.680;2022-10-15T04:24:57;15.50;99.90
10417;DHT22;62605;49.432;8.680;2022-10-15T04:27:25;15.60;99.90
10417;DHT22;62605;49.432;8.680;2022-10-15T04:29:52;15.60;99.90
10417;DHT22;62605;49.432;8.680;2022-10-15T04:32:23;15.50;99.90
10417;DHT22;62605;49.432;8.680;2022-10-15T04:34:51;15.60;99.90
10417;DHT22;62605;49.432;8.680;2022-10-15T04:37:19;15.60;99.90
10417;DHT22;62605;49.432;8.680;2022-10-15T04:39:46;15.60;99.90
10417;DHT22;62605;49.432;8.680;2022-10-15T04:42:13;15.60;99.90
10417;DHT22;62605;49.432;8.680;2022-10-15T04:44:41;15.60;99.90
10417;DHT22;62605;49.432;8.680;2022-10-15T04:47:09;15.60;99.90
10417;DHT22;62605;49.432;8.680;2022-10-15T04:49:38;15.70;99.90
10417;DHT22;62605;49.432;8.680;2022-10-15T04:52:05;15.60;99.90
10417;DHT22;62605;49.432;8.680;2022-10-15T04:54:33;15.70;99.90
10417;DHT22;62605;49.432;8.680;2022-10-15T04:57:00;15.60;99.90
10417;DHT22;62605;49.432;8.680;2022-10-15T04:59:27;15.60;99.90
10417;DHT22;62605;49.432;8.680;2022-10-15T05:01:54;15.60;99.90
10417;DHT22;62605;49.432;8.680;2022-10-15T05:04:21;15.60;99.90
10417;DHT22;62605;49.432;8.680;2022-10-15T05:06:50;15.60;99.90
10417;DHT22;62605;49.432;8.680;2022-10-15T05:09:17;15.60;99.90
10417;DHT22;62605;49.432;8.680;2022-10-15T05:11:44;15.60;99.90
10417;DHT22;62605;49.432;8.680;2022-10-15T05:14:11;15.60;99.90
10417;DHT22;62605;49.432;8.680;2022-10-15T05:16:38;15.60;99.90
10417;DHT22;62605;49.432;8.680;2022-10-15T05:19:06;15.60;99.90
10417;DHT22;62605;49.432;8.680;2022-10-15T05:21:34;15.60;99.90
10417;DHT22;62605;49.432;8.680;2022-10-15T05:24:04;15.60;99.90
10417;DHT22;62605;49.432;8.680;2022-10-15T05:26:31;15.50;99.90
10417;DHT22;62605;49.432;8.680;2022-10-15T05:28:59;15.70;99.90
10417;DHT22;62605;49.432;8.680;2022-10-15T05:31:28;15.60;99.90
10417;DHT22;62605;49.432;8.680;2022-10-15T05:33:56;15.60;99.90
10417;DHT22;62605;49.432;8.680;2022-10-15T05:36:30;15.60;99.90
10417;DHT22;62605;49.432;8.680;2022-10-15T05:38:59;15.60;99.90
10417;DHT22;62605;49.432;8.680;2022-10-15T05:41:28;15.50;99.90
10417;DHT22;62605;49.432;8.680;2022-10-15T05:43:57;15.50;99.90
10417;DHT22;62605;49.432;8.680;2022-10-15T05:46:24;15.60;99.90
10417;DHT22;62605;49.432;8.680;2022-10-15T05:48:55;15.60;99.90
10417;DHT22;62605;49.432;8.680;2022-10-15T05:51:23;15.60;99.90
10417;DHT22;62605;49.432;8.680;2022-10-15T05:53:51;15.60;99.90
10417;DHT22;62605;49.432;8.680;2022-10-15T05:56:19;15.60;99.90
10417;DHT22;62605;49.432;8.680;2022-10-15T05:58:48;15.60;99.90
10417;DHT22;62605;49.432;8.680;2022-10-15T06:01:15;15.60;99.90
10417;DHT22;62605;49.432;8.680;2022-10-15T06:03:43;15.60;99.90
10417;DHT22;62605;49.432;8.680;2022-10-15T06:06:15;15.60;99.90
10417;DHT22;62605;49.432;8.680;2022-10-15T06:08:43;15.60;99.90
10417;DHT22;62605;49.432;8.680;2022-10-15T06:11:10;15.60;99.90
10417;DHT22;62605;49.432;8.680;2022-10-15T06:13:38;15.60;99.90
10417;DHT22;62605;49.432;8.680;2022-10-15T06:16:08;15.70;99.90
10417;DHT22;62605;49.432;8.680;2022-10-15T06:18:36;15.70;99.90
10417;DHT22;62605;49.432;8.680;2022-10-15T06:21:05;15.70;99.90
10417;DHT22;62605;49.432;8.680;2022-10-15T06:23:32;15.70;99.90
10417;DHT22;62605;49.432;8.680;2022-10-15T06:26:01;15.70;99.90
10417;DHT22;62605;49.432;8.680;2022-10-15T06:28:28;15.70;99.90
10417;DHT22;62605;49.432;8.680;2022-10-15T06:30:57;15.70;99.90
10417;DHT22;62605;49.432;8.680;2022-10-15T06:33:27;15.70;99.90
10417;DHT22;62605;49.432;8.680;2022-10-15T06:35:54;15.70;99.90
10417;DHT22;62605;49.432;8.680;2022-10-15T06:38:22;15.70;99.90
10417;DHT22;62605;49.432;8.680;2022-10-15T06:40:49;15.70;99.90
10417;DHT22;62605;49.432;8.680;2022-10-15T06:43:17;15.70;99.90
10417;DHT22;62605;49.432;8.680;2022-10-15T06:45:44;15.70;99.90
10417;DHT22;62605;49.432;8.680;2022-10-15T06:48:11;15.70;99.90
10417;DHT22;62605;49.432;8.680;2022-10-15T06:50:39;15.70;99.90
10417;DHT22;62605;49.432;8.680;2022-10-15T06:53:08;15.70;99.90
10417;DHT22;62605;49.432;8.680;2022-10-15T06:55:35;15.80;99.90
10417;DHT22;62605;49.432;8.680;2022-10-15T06:58:04;15.80;99.90
10417;DHT22;62605;49.432;8.680;2022-10-15T07:00:31;15.80;99.90
10417;DHT22;62605;49.432;8.680;2022-10-15T07:03:02;15.90;99.90
10417;DHT22;62605;49.432;8.680;2022-10-15T07:05:29;15.90;99.90
10417;DHT22;62605;49.432;8.680;2022-10-15T07:07:59;16.00;99.90
10417;DHT22;62605;49.432;8.680;2022-10-15T07:10:27;16.00;99.90
10417;DHT22;62605;49.432;8.680;2022-10-15T07:12:54;16.00;99.90
10417;DHT22;62605;49.432;8.680;2022-10-15T07:15:22;16.00;99.90
10417;DHT22;62605;49.432;8.680;2022-10-15T07:17:51;16.00;99.90
10417;DHT22;62605;49.432;8.680;2022-10-15T07:20:21;16.00;99.90
10417;DHT22;62605;49.432;8.680;2022-10-15T07:22:49;16.00;99.90
10417;DHT22;62605;49.432;8.680;2022-10-15T07:25:28;16.10;99.90
10417;DHT22;62605;49.432;8.680;2022-10-15T07:27:55;16.10;99.90
10417;DHT22;62605;49.432;8.680;2022-10-15T07:30:24;16.10;99.90
10417;DHT22;62605;49.432;8.680;2022-10-15T07:32:52;16.00;99.90
10417;DHT22;62605;49.432;8.680;2022-10-15T07:35:20;16.00;99.90
10417;DHT22;62605;49.432;8.680;2022-10-15T07:37:47;16.00;99.90
10417;DHT22;62605;49.432;8.680;2022-10-15T07:40:19;16.00;99.90
10417;DHT22;62605;49.432;8.680;2022-10-15T07:42:51;16.00;99.90
10417;DHT22;62605;49.432;8.680;2022-10-15T07:45:19;16.00;99.90
10417;DHT22;62605;49.432;8.680;2022-10-15T07:47:46;16.00;99.90
10417;DHT22;62605;49.432;8.680;2022-10-15T07:50:13;16.00;99.90
10417;DHT22;62605;49.432;8.680;2022-10-15T07:52:43;15.90;99.90
10417;DHT22;62605;49.432;8.680;2022-10-15T07:55:11;16.10;99.90
10417;DHT22;62605;49.432;8.680;2022-10-15T07:57:41;16.00;99.90
10417;DHT22;62605;49.432;8.680;2022-10-15T08:00:08;16.10;99.90
10417;DHT22;62605;49.432;8.680;2022-10-15T08:02:36;16.00;99.90
10417;DHT22;62605;49.432;8.680;2022-10-15T08:05:03;16.00;99.90
10417;DHT22;62605;49.432;8.680;2022-10-15T08:07:31;16.10;99.90
10417;DHT22;62605;49.432;8.680;2022-10-15T08:09:58;16.10;99.90
10417;DHT22;62605;49.432;8.680;2022-10-15T08:12:25;16.10;99.90
10417;DHT22;62605;49.432;8.680;2022-10-15T08:14:54;16.10;99.90
10417;DHT22;62605;49.432;8.680;2022-10-15T08:17:21;16.10;99.90
10417;DHT22;62605;49.432;8.680;2022-10-15T08:19:48;16.10;99.90
10417;DHT22;62605;49.432;8.680;2022-10-15T08:22:16;16.20;99.90
10417;DHT22;62605;49.432;8.680;2022-10-15T08:24:43;16.20;99.90
10417;DHT22;62605;49.432;8.680;2022-10-15T08:27:10;16.20;99.90
10417;DHT22;62605;49.432;8.680;2022-10-15T08:29:37;16.30;99.90
10417;DHT22;62605;49.432;8.680;2022-10-15T08:32:06;16.30;99.90
10417;DHT22;62605;49.432;8.680;2022-10-15T08:34:33;16.30;99.90
10417;DHT22;62605;49.432;8.680;2022-10-15T08:37:01;16.30;99.90
10417;DHT22;62605;49.432;8.680;2022-10-15T08:39:29;16.20;99.90
10417;DHT22;62605;49.432;8.680;2022-10-15T08:42:01;16.10;99.90
10417;DHT22;62605;49.432;8.680;2022-10-15T08:44:37;16.10;99.90
10417;DHT22;62605;49.432;8.680;2022-10-15T08:47:11;16.10;99.90
10417;DHT22;62605;49.432;8.680;2022-10-15T08:49:43;16.10;99.90
10417;DHT22;62605;49.432;8.680;2022-10-15T08:52:17;16.10;99.90
10417;DHT22;62605;49.432;8.680;2022-10-15T08:54:47;16.10;99.90
10417;DHT22;62605;49.432;8.680;2022-10-15T08:57:22;16.10;99.90
10417;DHT22;62605;49.432;8.680;2022-10-15T09:00:00;16.10;99.90
10417;DHT22;62605;49.432;8.680;2022-10-15T09:02:34;16.10;99.90
10417;DHT22;62605;49.432;8.680;2022-10-15T09:05:21;16.00;99.90
10417;DHT22;62605;49.432;8.680;2022-10-15T09:07:55;16.10;99.90
10417;DHT22;62605;49.432;8.680;2022-10-15T09:10:31;16.20;99.90
10417;DHT22;62605;49.432;8.680;2022-10-15T09:13:13;16.20;99.90
10417;DHT22;62605;49.432;8.680;2022-10-15T09:15:46;16.20;99.90
10417;DHT22;62605;49.432;8.680;2022-10-15T09:18:22;16.30;99.90
10417;DHT22;62605;49.432;8.680;2022-10-15T09:20:50;16.30;99.90
10417;DHT22;62605;49.432;8.680;2022-10-15T09:23:21;16.30;99.90
10417;DHT22;62605;49.432;8.680;2022-10-15T09:25:54;16.30;99.90
10417;DHT22;62605;49.432;8.680;2022-10-15T09:28:30;16.40;99.90
10417;DHT22;62605;49.432;8.680;2022-10-15T09:30:59;16.40;99.90
10417;DHT22;62605;49.432;8.680;2022-10-15T09:33:36;16.50;99.90
10417;DHT22;62605;49.432;8.680;2022-10-15T09:36:14;16.50;99.90
10417;DHT22;62605;49.432;8.680;2022-10-15T09:38:52;16.40;99.90
10417;DHT22;62605;49.432;8.680;2022-10-15T09:41:28;16.40;99.90
10417;DHT22;62605;49.432;8.680;2022-10-15T09:43:58;16.40;99.90
10417;DHT22;62605;49.432;8.680;2022-10-15T09:46:27;16.50;99.90
10417;DHT22;62605;49.432;8.680;2022-10-15T09:49:02;16.40;99.90
10417;DHT22;62605;49.432;8.680;2022-10-15T09:51:35;16.40;99.90
10417;DHT22;62605;49.432;8.680;2022-10-15T09:54:11;16.40;99.90
10417;DHT22;62605;49.432;8.680;2022-10-15T09:56:45;16.40;99.90
10417;DHT22;62605;49.432;8.680;2022-10-15T09:59:15;16.50;99.90
10417;DHT22;62605;49.432;8.680;2022-10-15T10:01:56;16.50;99.90
10417;DHT22;62605;49.432;8.680;2022-10-15T10:04:27;16.40;99.90
10417;DHT22;62605;49.432;8.680;2022-10-15T10:06:57;16.30;99.90
10417;DHT22;62605;49.432;8.680;2022-10-15T10:09:30;16.40;99.90
10417;DHT22;62605;49.432;8.680;2022-10-15T10:12:00;16.40;99.90
10417;DHT22;62605;49.432;8.680;2022-10-15T10:14:30;16.30;99.90
10417;DHT22;62605;49.432;8.680;2022-10-15T10:17:09;16.40;99.90
10417;DHT22;62605;49.432;8.680;2022-10-15T10:19:43;16.40;99.90
10417;DHT22;62605;49.432;8.680;2022-10-15T10:22:16;16.40;99.90
10417;DHT22;62605;49.432;8.680;2022-10-15T10:24:45;16.40;99.90
10417;DHT22;62605;49.432;8.680;2022-10-15T10:27:21;16.50;99.90
10417;DHT22;62605;49.432;8.680;2022-10-15T10:29:53;16.50;99.90
10417;DHT22;62605;49.432;8.680;2022-10-15T10:32:26;16.70;99.90
10417;DHT22;62605;49.432;8.680;2022-10-15T10:34:58;16.80;99.90
10417;DHT22;62605;49.432;8.680;2022-10-15T10:37:28;16.90;99.90
10417;DHT22;62605;49.432;8.680;2022-10-15T10:39:59;17.00;99.90
10417;DHT22;62605;49.432;8.680;2022-10-15T10:42:33;17.00;99.90
10417;DHT22;62605;49.432;8.680;2022-10-15T10:45:25;17.20;99.90
10417;DHT22;62605;49.432;8.680;2022-10-15T10:47:54;17.20;99.90
10417;DHT22;62605;49.432;8.680;2022-10-15T10:50:31;17.20;99.90
10417;DHT22;62605;49.432;8.680;2022-10-15T10:53:21;17.30;99.90
10417;DHT22;62605;49.432;8.680;2022-10-15T10:55:49;17.30;99.90
10417;DHT22;62605;49.432;8.680;2022-10-15T10:58:20;17.30;99.90
10417;DHT22;62605;49.432;8.680;2022-10-15T11:00:49;17.30;99.90
10417;DHT22;62605;49.432;8.680;2022-10-15T11:03:26;17.40;99.90
10417;DHT22;62605;49.432;8.680;2022-10-15T11:08:53;17.50;99.90
10417;DHT22;62605;49.432;8.680;2022-10-15T11:11:27;17.80;99.90
10417;DHT22;62605;49.432;8.680;2022-10-15T11:14:04;17.80;99.90
10417;DHT22;62605;49.432;8.680;2022-10-15T11:16:46;17.90;99.90
10417;DHT22;62605;49.432;8.680;2022-10-15T11:19:24;18.00;99.90
10417;DHT22;62605;49.432;8.680;2022-10-15T11:22:09;17.80;99.90
10417;DHT22;62605;49.432;8.680;2022-10-15T11:24:44;17.80;99.90
10417;DHT22;62605;49.432;8.680;2022-10-15T11:27:26;17.90;99.90
10417;DHT22;62605;49.432;8.680;2022-10-15T11:30:03;17.80;99.90
10417;DHT22;62605;49.432;8.680;2022-10-15T11:32:43;17.80;99.90
10417;DHT22;62605;49.432;8.680;2022-10-15T11:35:29;17.80;99.90
10417;DHT22;62605;49.432;8.680;2022-10-15T11:38:11;17.70;99.90
10417;DHT22;62605;49.432;8.680;2022-10-15T11:40:48;17.70;99.90
10417;DHT22;62605;49.432;8.680;2022-10-15T11:43:27;17.80;99.90
10417;DHT22;62605;49.432;8.680;2022-10-15T11:46:04;17.80;99.90
10417;DHT22;62605;49.432;8.680;2022-10-15T11:48:43;17.80;99.90
10417;DHT22;62605;49.432;8.680;2022-10-15T11:51:19;17.90;99.90
10417;DHT22;62605;49.432;8.680;2022-10-15T11:54:20;17.90;99.90
10417;DHT22;62605;49.432;8.680;2022-10-15T11:56:51;17.90;99.90
10417;DHT22;62605;49.432;8.680;2022-10-15T11:59:29;17.90;99.90
10417;DHT22;62605;49.432;8.680;2022-10-15T12:02:01;17.80;99.90
10417;DHT22;62605;49.432;8.680;2022-10-15T12:04:37;17.60;99.90
10417;DHT22;62605;49.432;8.680;2022-10-15T12:07:09;17.50;99.90
10417;DHT22;62605;49.432;8.680;2022-10-15T12:09:43;17.30;99.90
10417;DHT22;62605;49.432;8.680;2022-10-15T12:12:18;17.10;99.90
10417;DHT22;62605;49.432;8.680;2022-10-15T12:14:51;17.00;99.90
10417;DHT22;62605;49.432;8.680;2022-10-15T12:17:24;17.00;99.90
10417;DHT22;62605;49.432;8.680;2022-10-15T12:19:57;16.90;99.90
10417;DHT22;62605;49.432;8.680;2022-10-15T12:22:32;16.90;99.90
10417;DHT22;62605;49.432;8.680;2022-10-15T12:25:05;16.90;99.90
10417;DHT22;62605;49.432;8.680;2022-10-15T12:27:36;16.90;99.90
10417;DHT22;62605;49.432;8.680;2022-10-15T12:30:12;17.00;99.90
10417;DHT22;62605;49.432;8.680;2022-10-15T12:32:46;17.00;99.90
10417;DHT22;62605;49.432;8.680;2022-10-15T12:35:29;17.00;99.90
10417;DHT22;62605;49.432;8.680;2022-10-15T12:38:17;17.00;99.90
10417;DHT22;62605;49.432;8.680;2022-10-15T12:40:55;17.10;99.90
10417;DHT22;62605;49.432;8.680;2022-10-15T12:43:24;17.00;99.90
10417;DHT22;62605;49.432;8.680;2022-10-15T12:45:54;17.00;99.90
10417;DHT22;62605;49.432;8.680;2022-10-15T12:48:32;16.90;99.90
10417;DHT22;62605;49.432;8.680;2022-10-15T12:54:39;17.00;99.90
10417;DHT22;62605;49.432;8.680;2022-10-15T13:00:31;16.80;99.90
10417;DHT22;62605;49.432;8.680;2022-10-15T13:03:16;16.80;99.90
10417;DHT22;62605;49.432;8.680;2022-10-15T13:05:45;16.80;99.90
10417;DHT22;62605;49.432;8.680;2022-10-15T13:08:15;16.90;99.90
10417;DHT22;62605;49.432;8.680;2022-10-15T13:10:48;16.80;99.90
10417;DHT22;62605;49.432;8.680;2022-10-15T13:13:21;16.90;99.90
10417;DHT22;62605;49.432;8.680;2022-10-15T13:15:56;16.90;99.90
10417;DHT22;62605;49.432;8.680;2022-10-15T13:18:25;16.80;99.90
10417;DHT22;62605;49.432;8.680;2022-10-15T13:20:59;16.80;99.90
10417;DHT22;62605;49.432;8.680;2022-10-15T13:23:28;16.90;99.90
10417;DHT22;62605;49.432;8.680;2022-10-15T13:26:15;16.80;99.90
10417;DHT22;62605;49.432;8.680;2022-10-15T13:28:44;16.80;99.90
10417;DHT22;62605;49.432;8.680;2022-10-15T13:31:21;16.70;99.90
10417;DHT22;62605;49.432;8.680;2022-10-15T13:33:51;16.60;99.90
10417;DHT22;62605;49.432;8.680;2022-10-15T13:36:21;16.50;99.90
10417;DHT22;62605;49.432;8.680;2022-10-15T13:38:54;16.50;99.90
10417;DHT22;62605;49.432;8.680;2022-10-15T13:41:27;16.50;99.90
10417;DHT22;62605;49.432;8.680;2022-10-15T13:43:56;16.60;99.90
10417;DHT22;62605;49.432;8.680;2022-10-15T13:46:30;16.70;99.90
10417;DHT22;62605;49.432;8.680;2022-10-15T13:49:00;16.80;99.90
10417;DHT22;62605;49.432;8.680;2022-10-15T13:51:32;16.80;99.90
10417;DHT22;62605;49.432;8.680;2022-10-15T13:54:07;16.90;99.90
10417;DHT22;62605;49.432;8.680;2022-10-15T13:56:36;16.90;99.90
10417;DHT22;62605;49.432;8.680;2022-10-15T13:59:15;16.90;99.90
10417;DHT22;62605;49.432;8.680;2022-10-15T14:01:47;16.90;99.90
10417;DHT22;62605;49.432;8.680;2022-10-15T14:04:17;16.90;99.90
10417;DHT22;62605;49.432;8.680;2022-10-15T14:06:52;16.80;99.90
10417;DHT22;62605;49.432;8.680;2022-10-15T14:09:29;16.80;99.90
10417;DHT22;62605;49.432;8.680;2022-10-15T14:11:59;16.70;99.90
10417;DHT22;62605;49.432;8.680;2022-10-15T14:14:28;16.70;99.90
10417;DHT22;62605;49.432;8.680;2022-10-15T14:17:00;16.70;99.90
10417;DHT22;62605;49.432;8.680;2022-10-15T14:19:34;16.70;99.90
10417;DHT22;62605;49.432;8.680;2022-10-15T14:22:03;16.70;99.90
10417;DHT22;62605;49.432;8.680;2022-10-15T14:24:33;16.70;99.90
10417;DHT22;62605;49.432;8.680;2022-10-15T14:27:03;16.80;99.90
10417;DHT22;62605;49.432;8.680;2022-10-15T14:29:37;16.80;99.90
10417;DHT22;62605;49.432;8.680;2022-10-15T14:32:43;16.80;99.90
10417;DHT22;62605;49.432;8.680;2022-10-15T14:35:22;16.80;99.90
10417;DHT22;62605;49.432;8.680;2022-10-15T14:37:59;16.80;99.90
10417;DHT22;62605;49.432;8.680;2022-10-15T14:40:27;16.80;99.90
10417;DHT22;62605;49.432;8.680;2022-10-15T14:43:02;16.80;99.90
10417;DHT22;62605;49.432;8.680;2022-10-15T14:45:34;16.70;99.90
10417;DHT22;62605;49.432;8.680;2022-10-15T14:48:17;16.70;99.90
10417;DHT22;62605;49.432;8.680;2022-10-15T14:50:45;16.70;99.90
10417;DHT22;62605;49.432;8.680;2022-10-15T14:53:17;16.70;99.90
10417;DHT22;62605;49.432;8.680;2022-10-15T14:55:48;16.70;99.90
10417;DHT22;62605;49.432;8.680;2022-10-15T14:58:18;16.70;99.90
10417;DHT22;62605;49.432;8.680;2022-10-15T15:00:47;16.70;99.90
10417;DHT22;62605;49.432;8.680;2022-10-15T15:03:19;16.70;99.90
10417;DHT22;62605;49.432;8.680;2022-10-15T15:05:49;16.70;99.90
10417;DHT22;62605;49.432;8.680;2022-10-15T15:08:20;16.70;99.90
10417;DHT22;62605;49.432;8.680;2022-10-15T15:10:48;16.70;99.90
10417;DHT22;62605;49.432;8.680;2022-10-15T15:13:21;16.70;99.90
10417;DHT22;62605;49.432;8.680;2022-10-15T15:15:51;16.70;99.90
10417;DHT22;62605;49.432;8.680;2022-10-15T15:18:21;16.60;99.90
10417;DHT22;62605;49.432;8.680;2022-10-15T15:20:49;16.60;99.90
10417;DHT22;62605;49.432;8.680;2022-10-15T15:23:18;16.60;99.90
10417;DHT22;62605;49.432;8.680;2022-10-15T15:25:51;16.60;99.90
10417;DHT22;62605;49.432;8.680;2022-10-15T15:28:22;16.50;99.90
10417;DHT22;62605;49.432;8.680;2022-10-15T15:30:55;16.60;99.90
10417;DHT22;62605;49.432;8.680;2022-10-15T15:33:24;16.60;99.90
10417;DHT22;62605;49.432;8.680;2022-10-15T15:36:00;16.50;99.90
10417;DHT22;62605;49.432;8.680;2022-10-15T15:38:30;16.50;99.90
10417;DHT22;62605;49.432;8.680;2022-10-15T15:41:02;16.50;99.90
10417;DHT22;62605;49.432;8.680;2022-10-15T15:43:29;16.70;99.90
10417;DHT22;62605;49.432;8.680;2022-10-15T15:45:57;16.70;99.90
10417;DHT22;62605;49.432;8.680;2022-10-15T15:48:26;16.50;99.90
10417;DHT22;62605;49.432;8.680;2022-10-15T15:51:00;16.60;99.90
10417;DHT22;62605;49.432;8.680;2022-10-15T15:53:28;16.60;99.90
10417;DHT22;62605;49.432;8.680;2022-10-15T15:55:55;16.50;99.90
10417;DHT22;62605;49.432;8.680;2022-10-15T15:58:23;16.60;99.90
10417;DHT22;62605;49.432;8.680;2022-10-15T16:00:50;16.60;99.90
10417;DHT22;62605;49.432;8.680;2022-10-15T16:03:17;16.60;99.90
10417;DHT22;62605;49.432;8.680;2022-10-15T16:05:46;16.70;99.90